sensor_id;sensor_type;location;lat;lon;timestamp;P1;durP1;ratioP1;P2;durP2;ratioP2
13731;SDS011;6937;56.096;12.664;2022-09-13T00:00:22;3.40;;;1.90;;
13731;SDS011;6937;56.096;12.664;2022-09-13T00:02:48;3.65;;;1.98;;
13731;SDS011;6937;56.096;12.664;2022-09-13T00:05:13;2.70;;;2.10;;
13731;SDS011;6937;56.096;12.664;2022-09-13T00:07:39;3.67;;;1.77;;
13731;SDS011;6937;56.096;12.664;2022-09-13T00:10:04;4.07;;;1.80;;
13731;SDS011;6937;56.096;12.664;2022-09-13T00:12:30;4.00;;;1.73;;
13731;SDS011;6937;56.096;12.664;2022-09-13T00:14:55;3.10;;;1.88;;
13731;SDS011;6937;56.096;12.664;2022-09-13T00:17:21;2.53;;;1.90;;
13731;SDS011;6937;56.096;12.664;2022-09-13T00:19:46;3.45;;;2.17;;
13731;SDS011;6937;56.096;12.664;2022-09-13T00:22:12;3.85;;;2.15;;
13731;SDS011;6937;56.096;12.664;2022-09-13T00:24:37;2.47;;;1.98;;
13731;SDS011;6937;56.096;12.664;2022-09-13T00:27:02;2.67;;;1.88;;
13731;SDS011;6937;56.096;12.664;2022-09-13T00:29:28;3.13;;;1.83;;
13731;SDS011;6937;56.096;12.664;2022-09-13T00:31:53;2.80;;;1.98;;
13731;SDS011;6937;56.096;12.664;2022-09-13T00:34:19;3.40;;;2.08;;
13731;SDS011;6937;56.096;12.664;2022-09-13T00:36:44;3.35;;;1.88;;
13731;SDS011;6937;56.096;12.664;2022-09-13T00:39:10;4.40;;;1.90;;
13731;SDS011;6937;56.096;12.664;2022-09-13T00:41:36;4.63;;;2.10;;
13731;SDS011;6937;56.096;12.664;2022-09-13T00:44:02;3.17;;;1.95;;
13731;SDS011;6937;56.096;12.664;2022-09-13T00:46:44;3.40;;;2.10;;
13731;SDS011;6937;56.096;12.664;2022-09-13T00:49:15;3.67;;;1.90;;
13731;SDS011;6937;56.096;12.664;2022-09-13T00:51:53;2.75;;;2.13;;
13731;SDS011;6937;56.096;12.664;2022-09-13T00:54:25;2.75;;;1.98;;
13731;SDS011;6937;56.096;12.664;2022-09-13T00:56:54;8.60;;;2.20;;
13731;SDS011;6937;56.096;12.664;2022-09-13T00:59:23;4.18;;;1.73;;
13731;SDS011;6937;56.096;12.664;2022-09-13T01:01:53;3.13;;;2.15;;
13731;SDS011;6937;56.096;12.664;2022-09-13T01:04:21;5.13;;;2.28;;
13731;SDS011;6937;56.096;12.664;2022-09-13T01:06:53;3.92;;;1.80;;
13731;SDS011;6937;56.096;12.664;2022-09-13T01:09:24;4.53;;;2.17;;
13731;SDS011;6937;56.096;12.664;2022-09-13T01:12:13;3.53;;;2.13;;
13731;SDS011;6937;56.096;12.664;2022-09-13T01:14:55;3.85;;;1.88;;
13731;SDS011;6937;56.096;12.664;2022-09-13T01:17:24;4.45;;;1.85;;
13731;SDS011;6937;56.096;12.664;2022-09-13T01:19:52;6.28;;;1.95;;
13731;SDS011;6937;56.096;12.664;2022-09-13T01:22:32;5.82;;;2.33;;
13731;SDS011;6937;56.096;12.664;2022-09-13T01:31:58;7.90;;;2.55;;
13731;SDS011;6937;56.096;12.664;2022-09-13T01:34:38;6.43;;;2.72;;
13731;SDS011;6937;56.096;12.664;2022-09-13T01:37:14;7.35;;;2.83;;
13731;SDS011;6937;56.096;12.664;2022-09-13T01:45:05;6.45;;;2.83;;
13731;SDS011;6937;56.096;12.664;2022-09-13T01:48:18;10.30;;;3.47;;
13731;SDS011;6937;56.096;12.664;2022-09-13T01:50:35;6.63;;;3.22;;
13731;SDS011;6937;56.096;12.664;2022-09-13T01:53:17;9.15;;;3.05;;
13731;SDS011;6937;56.096;12.664;2022-09-13T01:55:58;6.53;;;3.33;;
13731;SDS011;6937;56.096;12.664;2022-09-13T02:03:26;7.05;;;3.72;;
13731;SDS011;6937;56.096;12.664;2022-09-13T02:05:59;9.88;;;3.90;;
13731;SDS011;6937;56.096;12.664;2022-09-13T02:08:34;7.07;;;3.83;;
13731;SDS011;6937;56.096;12.664;2022-09-13T02:11:11;10.85;;;4.15;;
13731;SDS011;6937;56.096;12.664;2022-09-13T02:13:54;8.48;;;3.97;;
13731;SDS011;6937;56.096;12.664;2022-09-13T02:16:42;8.75;;;4.28;;
13731;SDS011;6937;56.096;12.664;2022-09-13T02:19:15;7.03;;;3.80;;
13731;SDS011;6937;56.096;12.664;2022-09-13T02:21:45;7.03;;;4.00;;
13731;SDS011;6937;56.096;12.664;2022-09-13T02:24:15;5.15;;;3.47;;
13731;SDS011;6937;56.096;12.664;2022-09-13T02:26:44;5.72;;;3.65;;
13731;SDS011;6937;56.096;12.664;2022-09-13T02:29:12;5.97;;;3.70;;
13731;SDS011;6937;56.096;12.664;2022-09-13T02:32:25;4.03;;;3.53;;
13731;SDS011;6937;56.096;12.664;2022-09-13T02:34:38;4.85;;;4.07;;
13731;SDS011;6937;56.096;12.664;2022-09-13T02:37:08;5.72;;;3.65;;
13731;SDS011;6937;56.096;12.664;2022-09-13T02:39:35;7.57;;;4.13;;
13731;SDS011;6937;56.096;12.664;2022-09-13T02:42:09;5.35;;;3.60;;
13731;SDS011;6937;56.096;12.664;2022-09-13T02:44:42;5.78;;;4.30;;
13731;SDS011;6937;56.096;12.664;2022-09-13T02:52:52;5.05;;;4.30;;
13731;SDS011;6937;56.096;12.664;2022-09-13T02:55:25;7.53;;;4.72;;
13731;SDS011;6937;56.096;12.664;2022-09-13T03:00:56;8.43;;;5.10;;
13731;SDS011;6937;56.096;12.664;2022-09-13T03:03:21;6.80;;;5.38;;
13731;SDS011;6937;56.096;12.664;2022-09-13T03:05:48;12.52;;;6.30;;
13731;SDS011;6937;56.096;12.664;2022-09-13T03:08:13;6.82;;;5.68;;
13731;SDS011;6937;56.096;12.664;2022-09-13T03:16:35;8.23;;;6.13;;
13731;SDS011;6937;56.096;12.664;2022-09-13T03:27:55;7.50;;;6.80;;
13731;SDS011;6937;56.096;12.664;2022-09-13T03:30:28;7.43;;;6.45;;
13731;SDS011;6937;56.096;12.664;2022-09-13T03:33:05;6.85;;;6.03;;
13731;SDS011;6937;56.096;12.664;2022-09-13T03:35:41;7.38;;;6.35;;
13731;SDS011;6937;56.096;12.664;2022-09-13T03:38:36;8.25;;;6.55;;
13731;SDS011;6937;56.096;12.664;2022-09-13T03:41:30;7.55;;;6.55;;
13731;SDS011;6937;56.096;12.664;2022-09-13T03:44:00;7.40;;;6.25;;
13731;SDS011;6937;56.096;12.664;2022-09-13T03:46:29;7.93;;;6.20;;
13731;SDS011;6937;56.096;12.664;2022-09-13T03:49:02;7.65;;;6.22;;
13731;SDS011;6937;56.096;12.664;2022-09-13T03:51:30;7.25;;;5.78;;
13731;SDS011;6937;56.096;12.664;2022-09-13T03:53:58;6.82;;;6.07;;
13731;SDS011;6937;56.096;12.664;2022-09-13T03:56:27;6.63;;;5.90;;
13731;SDS011;6937;56.096;12.664;2022-09-13T03:58:52;6.30;;;5.70;;
13731;SDS011;6937;56.096;12.664;2022-09-13T04:01:21;6.75;;;6.03;;
13731;SDS011;6937;56.096;12.664;2022-09-13T04:03:48;7.22;;;6.28;;
13731;SDS011;6937;56.096;12.664;2022-09-13T04:06:14;6.97;;;6.28;;
13731;SDS011;6937;56.096;12.664;2022-09-13T04:08:39;7.97;;;6.32;;
13731;SDS011;6937;56.096;12.664;2022-09-13T04:11:05;7.30;;;6.57;;
13731;SDS011;6937;56.096;12.664;2022-09-13T04:13:31;7.85;;;6.75;;
13731;SDS011;6937;56.096;12.664;2022-09-13T04:16:00;7.53;;;6.90;;
13731;SDS011;6937;56.096;12.664;2022-09-13T04:18:26;7.85;;;7.07;;
13731;SDS011;6937;56.096;12.664;2022-09-13T04:20:53;9.07;;;7.03;;
13731;SDS011;6937;56.096;12.664;2022-09-13T04:23:20;8.57;;;7.53;;
13731;SDS011;6937;56.096;12.664;2022-09-13T04:25:45;7.82;;;7.10;;
13731;SDS011;6937;56.096;12.664;2022-09-13T04:28:11;7.85;;;7.03;;
13731;SDS011;6937;56.096;12.664;2022-09-13T04:30:36;7.13;;;6.45;;
13731;SDS011;6937;56.096;12.664;2022-09-13T04:33:01;7.28;;;6.60;;
13731;SDS011;6937;56.096;12.664;2022-09-13T04:35:27;7.35;;;6.65;;
13731;SDS011;6937;56.096;12.664;2022-09-13T04:37:55;7.78;;;7.07;;
13731;SDS011;6937;56.096;12.664;2022-09-13T04:40:22;7.47;;;6.82;;
13731;SDS011;6937;56.096;12.664;2022-09-13T04:42:48;9.18;;;7.88;;
13731;SDS011;6937;56.096;12.664;2022-09-13T04:45:13;8.00;;;6.97;;
13731;SDS011;6937;56.096;12.664;2022-09-13T04:47:38;8.02;;;7.22;;
13731;SDS011;6937;56.096;12.664;2022-09-13T04:50:04;7.38;;;6.68;;
13731;SDS011;6937;56.096;12.664;2022-09-13T04:52:31;7.85;;;7.07;;
13731;SDS011;6937;56.096;12.664;2022-09-13T04:54:57;6.22;;;5.72;;
13731;SDS011;6937;56.096;12.664;2022-09-13T04:57:25;6.30;;;5.80;;
13731;SDS011;6937;56.096;12.664;2022-09-13T04:59:51;6.72;;;6.13;;
13731;SDS011;6937;56.096;12.664;2022-09-13T05:02:16;7.28;;;6.68;;
13731;SDS011;6937;56.096;12.664;2022-09-13T05:04:42;7.60;;;6.90;;
13731;SDS011;6937;56.096;12.664;2022-09-13T05:07:07;7.15;;;6.55;;
13731;SDS011;6937;56.096;12.664;2022-09-13T05:09:32;7.30;;;6.72;;
13731;SDS011;6937;56.096;12.664;2022-09-13T05:11:58;7.75;;;7.05;;
13731;SDS011;6937;56.096;12.664;2022-09-13T05:14:24;8.70;;;7.78;;
13731;SDS011;6937;56.096;12.664;2022-09-13T05:16:49;8.82;;;8.02;;
13731;SDS011;6937;56.096;12.664;2022-09-13T05:19:14;8.85;;;8.05;;
13731;SDS011;6937;56.096;12.664;2022-09-13T05:21:40;9.77;;;8.95;;
13731;SDS011;6937;56.096;12.664;2022-09-13T05:24:05;9.60;;;8.75;;
13731;SDS011;6937;56.096;12.664;2022-09-13T05:26:31;10.07;;;9.27;;
13731;SDS011;6937;56.096;12.664;2022-09-13T05:28:57;10.90;;;9.32;;
13731;SDS011;6937;56.096;12.664;2022-09-13T05:31:24;11.63;;;10.13;;
13731;SDS011;6937;56.096;12.664;2022-09-13T05:33:57;11.32;;;10.23;;
13731;SDS011;6937;56.096;12.664;2022-09-13T05:36:24;10.70;;;9.60;;
13731;SDS011;6937;56.096;12.664;2022-09-13T05:38:53;11.40;;;10.20;;
13731;SDS011;6937;56.096;12.664;2022-09-13T05:41:20;11.07;;;10.00;;
13731;SDS011;6937;56.096;12.664;2022-09-13T05:43:46;11.23;;;10.23;;
13731;SDS011;6937;56.096;12.664;2022-09-13T05:46:12;11.30;;;10.10;;
13731;SDS011;6937;56.096;12.664;2022-09-13T05:48:39;11.27;;;10.13;;
13731;SDS011;6937;56.096;12.664;2022-09-13T05:51:13;11.23;;;10.15;;
13731;SDS011;6937;56.096;12.664;2022-09-13T05:53:41;11.88;;;10.68;;
13731;SDS011;6937;56.096;12.664;2022-09-13T05:56:08;11.48;;;10.38;;
13731;SDS011;6937;56.096;12.664;2022-09-13T05:58:42;11.45;;;10.35;;
13731;SDS011;6937;56.096;12.664;2022-09-13T06:01:09;12.13;;;10.93;;
13731;SDS011;6937;56.096;12.664;2022-09-13T06:03:35;14.75;;;11.25;;
13731;SDS011;6937;56.096;12.664;2022-09-13T06:06:01;12.48;;;11.27;;
13731;SDS011;6937;56.096;12.664;2022-09-13T06:08:28;12.00;;;10.80;;
13731;SDS011;6937;56.096;12.664;2022-09-13T06:10:58;11.35;;;10.15;;
13731;SDS011;6937;56.096;12.664;2022-09-13T06:13:25;11.00;;;9.80;;
13731;SDS011;6937;56.096;12.664;2022-09-13T06:15:52;9.13;;;8.20;;
13731;SDS011;6937;56.096;12.664;2022-09-13T06:18:19;9.88;;;8.88;;
13731;SDS011;6937;56.096;12.664;2022-09-13T06:20:44;9.75;;;8.25;;
13731;SDS011;6937;56.096;12.664;2022-09-13T06:23:10;8.70;;;7.22;;
13731;SDS011;6937;56.096;12.664;2022-09-13T06:25:36;8.50;;;6.70;;
13731;SDS011;6937;56.096;12.664;2022-09-13T06:28:02;4.93;;;3.95;;
13731;SDS011;6937;56.096;12.664;2022-09-13T06:30:28;3.92;;;3.50;;
13731;SDS011;6937;56.096;12.664;2022-09-13T06:32:54;4.45;;;3.28;;
13731;SDS011;6937;56.096;12.664;2022-09-13T06:35:20;3.72;;;2.75;;
13731;SDS011;6937;56.096;12.664;2022-09-13T06:37:46;4.65;;;2.35;;
13731;SDS011;6937;56.096;12.664;2022-09-13T06:40:11;5.07;;;2.55;;
13731;SDS011;6937;56.096;12.664;2022-09-13T06:42:37;3.88;;;2.05;;
13731;SDS011;6937;56.096;12.664;2022-09-13T06:45:03;4.00;;;2.00;;
13731;SDS011;6937;56.096;12.664;2022-09-13T06:47:29;2.88;;;1.90;;
13731;SDS011;6937;56.096;12.664;2022-09-13T06:49:55;3.42;;;1.95;;
13731;SDS011;6937;56.096;12.664;2022-09-13T06:52:20;2.63;;;1.42;;
13731;SDS011;6937;56.096;12.664;2022-09-13T06:54:45;3.60;;;1.45;;
13731;SDS011;6937;56.096;12.664;2022-09-13T06:57:11;2.15;;;1.38;;
13731;SDS011;6937;56.096;12.664;2022-09-13T06:59:36;3.30;;;1.58;;
13731;SDS011;6937;56.096;12.664;2022-09-13T07:02:01;4.25;;;1.50;;
13731;SDS011;6937;56.096;12.664;2022-09-13T07:04:27;3.83;;;1.33;;
13731;SDS011;6937;56.096;12.664;2022-09-13T07:06:55;3.47;;;1.20;;
13731;SDS011;6937;56.096;12.664;2022-09-13T07:09:21;6.30;;;1.58;;
13731;SDS011;6937;56.096;12.664;2022-09-13T07:11:48;6.82;;;1.52;;
13731;SDS011;6937;56.096;12.664;2022-09-13T07:14:15;5.70;;;1.30;;
13731;SDS011;6937;56.096;12.664;2022-09-13T07:16:43;6.10;;;1.80;;
13731;SDS011;6937;56.096;12.664;2022-09-13T07:19:11;6.35;;;1.50;;
13731;SDS011;6937;56.096;12.664;2022-09-13T07:21:39;6.38;;;1.60;;
13731;SDS011;6937;56.096;12.664;2022-09-13T07:24:05;7.40;;;1.77;;
13731;SDS011;6937;56.096;12.664;2022-09-13T07:26:31;5.78;;;1.45;;
13731;SDS011;6937;56.096;12.664;2022-09-13T07:29:01;5.47;;;1.63;;
13731;SDS011;6937;56.096;12.664;2022-09-13T07:31:29;3.15;;;1.05;;
13731;SDS011;6937;56.096;12.664;2022-09-13T07:33:57;7.65;;;1.30;;
13731;SDS011;6937;56.096;12.664;2022-09-13T07:36:25;3.75;;;1.25;;
13731;SDS011;6937;56.096;12.664;2022-09-13T07:38:51;4.93;;;1.40;;
13731;SDS011;6937;56.096;12.664;2022-09-13T07:41:18;5.50;;;1.30;;
13731;SDS011;6937;56.096;12.664;2022-09-13T07:43:45;5.38;;;1.40;;
13731;SDS011;6937;56.096;12.664;2022-09-13T07:46:11;4.75;;;1.30;;
13731;SDS011;6937;56.096;12.664;2022-09-13T07:48:39;4.78;;;0.98;;
13731;SDS011;6937;56.096;12.664;2022-09-13T07:51:16;6.05;;;1.30;;
13731;SDS011;6937;56.096;12.664;2022-09-13T07:53:44;5.50;;;1.50;;
13731;SDS011;6937;56.096;12.664;2022-09-13T07:56:11;3.05;;;1.42;;
13731;SDS011;6937;56.096;12.664;2022-09-13T07:58:42;5.40;;;1.55;;
13731;SDS011;6937;56.096;12.664;2022-09-13T08:01:12;3.13;;;0.93;;
13731;SDS011;6937;56.096;12.664;2022-09-13T08:03:40;6.75;;;1.40;;
13731;SDS011;6937;56.096;12.664;2022-09-13T08:06:06;3.70;;;1.13;;
13731;SDS011;6937;56.096;12.664;2022-09-13T08:08:32;5.45;;;1.58;;
13731;SDS011;6937;56.096;12.664;2022-09-13T08:10:59;5.32;;;1.42;;
13731;SDS011;6937;56.096;12.664;2022-09-13T08:13:25;4.30;;;1.15;;
13731;SDS011;6937;56.096;12.664;2022-09-13T08:15:51;4.38;;;1.25;;
13731;SDS011;6937;56.096;12.664;2022-09-13T08:18:17;4.65;;;1.13;;
13731;SDS011;6937;56.096;12.664;2022-09-13T08:20:43;4.53;;;1.25;;
13731;SDS011;6937;56.096;12.664;2022-09-13T08:23:09;3.58;;;0.98;;
13731;SDS011;6937;56.096;12.664;2022-09-13T08:25:36;3.28;;;0.80;;
13731;SDS011;6937;56.096;12.664;2022-09-13T08:28:13;5.72;;;1.45;;
13731;SDS011;6937;56.096;12.664;2022-09-13T08:30:40;3.35;;;1.10;;
13731;SDS011;6937;56.096;12.664;2022-09-13T08:33:07;5.03;;;0.95;;
13731;SDS011;6937;56.096;12.664;2022-09-13T08:35:34;4.75;;;1.10;;
13731;SDS011;6937;56.096;12.664;2022-09-13T08:37:59;4.43;;;0.98;;
13731;SDS011;6937;56.096;12.664;2022-09-13T08:40:26;3.70;;;1.02;;
13731;SDS011;6937;56.096;12.664;2022-09-13T08:43:01;3.90;;;1.00;;
13731;SDS011;6937;56.096;12.664;2022-09-13T08:45:35;3.33;;;1.02;;
13731;SDS011;6937;56.096;12.664;2022-09-13T08:48:02;4.57;;;0.90;;
13731;SDS011;6937;56.096;12.664;2022-09-13T08:50:36;5.10;;;1.00;;
13731;SDS011;6937;56.096;12.664;2022-09-13T08:53:16;3.85;;;1.10;;
13731;SDS011;6937;56.096;12.664;2022-09-13T08:59:23;4.05;;;0.95;;
13731;SDS011;6937;56.096;12.664;2022-09-13T09:07:57;3.40;;;1.00;;
13731;SDS011;6937;56.096;12.664;2022-09-13T09:10:30;2.92;;;0.85;;
13731;SDS011;6937;56.096;12.664;2022-09-13T09:13:22;5.05;;;1.25;;
13731;SDS011;6937;56.096;12.664;2022-09-13T09:15:55;3.47;;;1.02;;
13731;SDS011;6937;56.096;12.664;2022-09-13T09:18:29;3.05;;;0.90;;
13731;SDS011;6937;56.096;12.664;2022-09-13T09:20:57;7.60;;;1.65;;
13731;SDS011;6937;56.096;12.664;2022-09-13T09:23:35;4.28;;;1.40;;
13731;SDS011;6937;56.096;12.664;2022-09-13T09:26:19;3.83;;;0.95;;
13731;SDS011;6937;56.096;12.664;2022-09-13T09:28:57;3.78;;;1.23;;
13731;SDS011;6937;56.096;12.664;2022-09-13T09:31:29;3.08;;;1.10;;
13731;SDS011;6937;56.096;12.664;2022-09-13T09:36:43;4.60;;;0.90;;
13731;SDS011;6937;56.096;12.664;2022-09-13T09:39:15;4.70;;;1.23;;
13731;SDS011;6937;56.096;12.664;2022-09-13T09:41:41;5.25;;;1.10;;
13731;SDS011;6937;56.096;12.664;2022-09-13T09:44:21;6.57;;;1.48;;
13731;SDS011;6937;56.096;12.664;2022-09-13T09:47:05;6.68;;;1.35;;
13731;SDS011;6937;56.096;12.664;2022-09-13T09:49:45;4.72;;;1.42;;
13731;SDS011;6937;56.096;12.664;2022-09-13T09:52:32;5.93;;;1.50;;
13731;SDS011;6937;56.096;12.664;2022-09-13T09:55:24;5.22;;;1.50;;
13731;SDS011;6937;56.096;12.664;2022-09-13T09:58:05;4.35;;;1.35;;
13731;SDS011;6937;56.096;12.664;2022-09-13T10:00:33;4.13;;;1.08;;
13731;SDS011;6937;56.096;12.664;2022-09-13T10:03:17;6.25;;;1.52;;
13731;SDS011;6937;56.096;12.664;2022-09-13T10:05:45;6.65;;;1.67;;
13731;SDS011;6937;56.096;12.664;2022-09-13T10:11:12;9.35;;;1.92;;
13731;SDS011;6937;56.096;12.664;2022-09-13T10:13:39;5.32;;;1.50;;
13731;SDS011;6937;56.096;12.664;2022-09-13T10:16:26;6.85;;;1.63;;
13731;SDS011;6937;56.096;12.664;2022-09-13T10:18:53;6.93;;;1.83;;
13731;SDS011;6937;56.096;12.664;2022-09-13T10:21:39;6.18;;;1.65;;
13731;SDS011;6937;56.096;12.664;2022-09-13T10:24:14;4.68;;;1.13;;
13731;SDS011;6937;56.096;12.664;2022-09-13T10:26:41;6.97;;;1.55;;
13731;SDS011;6937;56.096;12.664;2022-09-13T10:29:08;5.78;;;1.70;;
13731;SDS011;6937;56.096;12.664;2022-09-13T10:31:41;5.78;;;1.65;;
13731;SDS011;6937;56.096;12.664;2022-09-13T10:36:35;3.80;;;1.20;;
13731;SDS011;6937;56.096;12.664;2022-09-13T10:39:02;6.43;;;1.50;;
13731;SDS011;6937;56.096;12.664;2022-09-13T10:41:33;5.00;;;1.50;;
13731;SDS011;6937;56.096;12.664;2022-09-13T10:44:03;6.05;;;1.65;;
13731;SDS011;6937;56.096;12.664;2022-09-13T10:46:31;5.53;;;1.40;;
13731;SDS011;6937;56.096;12.664;2022-09-13T10:49:00;8.73;;;1.88;;
13731;SDS011;6937;56.096;12.664;2022-09-13T10:56:34;6.65;;;1.70;;
13731;SDS011;6937;56.096;12.664;2022-09-13T10:59:13;11.35;;;1.90;;
13731;SDS011;6937;56.096;12.664;2022-09-13T11:10:13;5.05;;;1.35;;
13731;SDS011;6937;56.096;12.664;2022-09-13T11:13:15;5.45;;;1.48;;
13731;SDS011;6937;56.096;12.664;2022-09-13T11:15:55;5.40;;;1.58;;
13731;SDS011;6937;56.096;12.664;2022-09-13T11:29:36;4.70;;;1.40;;
13731;SDS011;6937;56.096;12.664;2022-09-13T11:40:39;5.60;;;1.52;;
13731;SDS011;6937;56.096;12.664;2022-09-13T11:43:20;7.07;;;1.98;;
13731;SDS011;6937;56.096;12.664;2022-09-13T11:46:09;8.23;;;1.67;;
13731;SDS011;6937;56.096;12.664;2022-09-13T11:51:57;3.58;;;1.10;;
13731;SDS011;6937;56.096;12.664;2022-09-13T11:57:24;5.03;;;1.20;;
13731;SDS011;6937;56.096;12.664;2022-09-13T11:59:56;6.35;;;1.52;;
13731;SDS011;6937;56.096;12.664;2022-09-13T12:02:43;6.07;;;1.55;;
13731;SDS011;6937;56.096;12.664;2022-09-13T12:05:19;6.05;;;1.40;;
13731;SDS011;6937;56.096;12.664;2022-09-13T12:08:29;7.10;;;1.27;;
13731;SDS011;6937;56.096;12.664;2022-09-13T12:11:10;4.60;;;1.30;;
13731;SDS011;6937;56.096;12.664;2022-09-13T12:13:53;4.72;;;1.25;;
13731;SDS011;6937;56.096;12.664;2022-09-13T12:16:24;4.45;;;1.45;;
13731;SDS011;6937;56.096;12.664;2022-09-13T12:19:22;5.13;;;1.20;;
13731;SDS011;6937;56.096;12.664;2022-09-13T12:21:52;4.88;;;1.35;;
13731;SDS011;6937;56.096;12.664;2022-09-13T12:27:02;4.32;;;1.27;;
13731;SDS011;6937;56.096;12.664;2022-09-13T12:29:39;3.22;;;1.13;;
13731;SDS011;6937;56.096;12.664;2022-09-13T12:32:13;3.60;;;1.30;;
13731;SDS011;6937;56.096;12.664;2022-09-13T12:34:50;5.97;;;1.20;;
13731;SDS011;6937;56.096;12.664;2022-09-13T12:52:09;5.47;;;1.30;;
13731;SDS011;6937;56.096;12.664;2022-09-13T12:57:40;4.10;;;1.30;;
13731;SDS011;6937;56.096;12.664;2022-09-13T13:00:17;4.30;;;1.23;;
13731;SDS011;6937;56.096;12.664;2022-09-13T13:07:57;4.35;;;1.17;;
13731;SDS011;6937;56.096;12.664;2022-09-13T13:10:28;4.20;;;0.90;;
13731;SDS011;6937;56.096;12.664;2022-09-13T13:13:07;5.72;;;1.20;;
13731;SDS011;6937;56.096;12.664;2022-09-13T13:16:01;5.80;;;1.52;;
13731;SDS011;6937;56.096;12.664;2022-09-13T13:18:46;5.40;;;1.55;;
13731;SDS011;6937;56.096;12.664;2022-09-13T13:21:55;6.97;;;1.20;;
13731;SDS011;6937;56.096;12.664;2022-09-13T13:26:47;4.80;;;1.30;;
13731;SDS011;6937;56.096;12.664;2022-09-13T13:29:16;4.65;;;1.15;;
13731;SDS011;6937;56.096;12.664;2022-09-13T13:36:46;5.00;;;1.20;;
13731;SDS011;6937;56.096;12.664;2022-09-13T13:46:53;3.22;;;1.20;;
13731;SDS011;6937;56.096;12.664;2022-09-13T13:54:31;6.32;;;1.52;;
13731;SDS011;6937;56.096;12.664;2022-09-13T14:08:01;4.22;;;1.33;;
13731;SDS011;6937;56.096;12.664;2022-09-13T14:13:25;4.45;;;1.30;;
13731;SDS011;6937;56.096;12.664;2022-09-13T14:18:46;6.72;;;1.63;;
13731;SDS011;6937;56.096;12.664;2022-09-13T14:21:21;6.93;;;1.45;;
13731;SDS011;6937;56.096;12.664;2022-09-13T14:26:36;3.13;;;1.10;;
13731;SDS011;6937;56.096;12.664;2022-09-13T14:29:05;4.38;;;1.50;;
13731;SDS011;6937;56.096;12.664;2022-09-13T14:31:31;4.78;;;1.33;;
13731;SDS011;6937;56.096;12.664;2022-09-13T14:33:56;4.32;;;1.13;;
13731;SDS011;6937;56.096;12.664;2022-09-13T14:36:22;3.63;;;1.20;;
13731;SDS011;6937;56.096;12.664;2022-09-13T14:38:51;5.45;;;1.33;;
13731;SDS011;6937;56.096;12.664;2022-09-13T14:41:21;4.55;;;1.02;;
13731;SDS011;6937;56.096;12.664;2022-09-13T14:43:53;2.75;;;1.05;;
13731;SDS011;6937;56.096;12.664;2022-09-13T14:46:23;2.70;;;1.00;;
13731;SDS011;6937;56.096;12.664;2022-09-13T14:49:02;3.13;;;0.90;;
13731;SDS011;6937;56.096;12.664;2022-09-13T14:51:46;3.03;;;1.00;;
13731;SDS011;6937;56.096;12.664;2022-09-13T14:54:17;3.55;;;1.13;;
13731;SDS011;6937;56.096;12.664;2022-09-13T14:56:50;3.25;;;1.00;;
13731;SDS011;6937;56.096;12.664;2022-09-13T15:01:58;4.10;;;1.48;;
13731;SDS011;6937;56.096;12.664;2022-09-13T15:04:30;3.28;;;1.10;;
13731;SDS011;6937;56.096;12.664;2022-09-13T15:07:06;4.10;;;1.02;;
13731;SDS011;6937;56.096;12.664;2022-09-13T15:09:44;3.10;;;0.93;;
13731;SDS011;6937;56.096;12.664;2022-09-13T15:12:19;5.00;;;1.30;;
13731;SDS011;6937;56.096;12.664;2022-09-13T15:14:49;4.55;;;1.30;;
13731;SDS011;6937;56.096;12.664;2022-09-13T15:17:51;3.75;;;1.10;;
13731;SDS011;6937;56.096;12.664;2022-09-13T15:20:16;4.32;;;1.40;;
13731;SDS011;6937;56.096;12.664;2022-09-13T15:22:41;4.50;;;1.30;;
13731;SDS011;6937;56.096;12.664;2022-09-13T15:25:24;5.40;;;1.33;;
13731;SDS011;6937;56.096;12.664;2022-09-13T15:27:51;5.00;;;1.40;;
13731;SDS011;6937;56.096;12.664;2022-09-13T15:30:19;4.43;;;1.50;;
13731;SDS011;6937;56.096;12.664;2022-09-13T15:32:47;3.85;;;1.20;;
13731;SDS011;6937;56.096;12.664;2022-09-13T15:37:46;3.53;;;1.65;;
13731;SDS011;6937;56.096;12.664;2022-09-13T15:40:13;6.03;;;1.58;;
13731;SDS011;6937;56.096;12.664;2022-09-13T15:42:48;5.60;;;2.00;;
13731;SDS011;6937;56.096;12.664;2022-09-13T15:45:15;3.92;;;1.27;;
13731;SDS011;6937;56.096;12.664;2022-09-13T15:47:43;3.85;;;1.13;;
13731;SDS011;6937;56.096;12.664;2022-09-13T15:50:17;3.42;;;0.98;;
13731;SDS011;6937;56.096;12.664;2022-09-13T15:52:45;4.70;;;1.30;;
13731;SDS011;6937;56.096;12.664;2022-09-13T15:55:10;3.67;;;1.20;;
13731;SDS011;6937;56.096;12.664;2022-09-13T15:57:36;4.68;;;1.23;;
13731;SDS011;6937;56.096;12.664;2022-09-13T16:00:01;5.45;;;1.73;;
13731;SDS011;6937;56.096;12.664;2022-09-13T16:02:30;3.90;;;1.10;;
13731;SDS011;6937;56.096;12.664;2022-09-13T16:04:56;3.13;;;1.38;;
13731;SDS011;6937;56.096;12.664;2022-09-13T16:07:22;3.88;;;1.35;;
13731;SDS011;6937;56.096;12.664;2022-09-13T16:09:49;6.68;;;1.65;;
13731;SDS011;6937;56.096;12.664;2022-09-13T16:12:15;5.35;;;1.52;;
13731;SDS011;6937;56.096;12.664;2022-09-13T16:14:42;3.88;;;1.35;;
13731;SDS011;6937;56.096;12.664;2022-09-13T16:17:19;7.53;;;1.70;;
13731;SDS011;6937;56.096;12.664;2022-09-13T16:19:44;7.72;;;2.15;;
13731;SDS011;6937;56.096;12.664;2022-09-13T16:22:09;4.60;;;1.38;;
13731;SDS011;6937;56.096;12.664;2022-09-13T16:24:35;5.18;;;1.70;;
13731;SDS011;6937;56.096;12.664;2022-09-13T16:27:01;4.68;;;1.67;;
13731;SDS011;6937;56.096;12.664;2022-09-13T16:29:27;7.78;;;1.98;;
13731;SDS011;6937;56.096;12.664;2022-09-13T16:31:53;7.15;;;1.90;;
13731;SDS011;6937;56.096;12.664;2022-09-13T16:34:18;5.80;;;1.90;;
13731;SDS011;6937;56.096;12.664;2022-09-13T16:36:44;6.22;;;1.67;;
13731;SDS011;6937;56.096;12.664;2022-09-13T16:39:09;6.57;;;1.95;;
13731;SDS011;6937;56.096;12.664;2022-09-13T16:41:35;5.47;;;1.98;;
13731;SDS011;6937;56.096;12.664;2022-09-13T16:44:04;8.95;;;2.53;;
13731;SDS011;6937;56.096;12.664;2022-09-13T16:46:29;8.73;;;2.13;;
13731;SDS011;6937;56.096;12.664;2022-09-13T16:48:55;6.50;;;2.00;;
13731;SDS011;6937;56.096;12.664;2022-09-13T16:51:21;7.43;;;2.15;;
13731;SDS011;6937;56.096;12.664;2022-09-13T16:53:48;7.95;;;2.15;;
13731;SDS011;6937;56.096;12.664;2022-09-13T16:56:15;8.45;;;2.70;;
13731;SDS011;6937;56.096;12.664;2022-09-13T16:58:43;9.25;;;2.10;;
13731;SDS011;6937;56.096;12.664;2022-09-13T17:01:13;7.85;;;2.47;;
13731;SDS011;6937;56.096;12.664;2022-09-13T17:03:41;6.90;;;2.00;;
13731;SDS011;6937;56.096;12.664;2022-09-13T17:06:07;5.80;;;1.73;;
13731;SDS011;6937;56.096;12.664;2022-09-13T17:08:34;7.47;;;2.40;;
13731;SDS011;6937;56.096;12.664;2022-09-13T17:11:05;8.55;;;1.90;;
13731;SDS011;6937;56.096;12.664;2022-09-13T17:13:32;8.73;;;2.00;;
13731;SDS011;6937;56.096;12.664;2022-09-13T17:15:57;6.72;;;1.63;;
13731;SDS011;6937;56.096;12.664;2022-09-13T17:18:23;7.82;;;2.00;;
13731;SDS011;6937;56.096;12.664;2022-09-13T17:20:49;8.10;;;2.30;;
13731;SDS011;6937;56.096;12.664;2022-09-13T17:23:14;5.95;;;2.20;;
13731;SDS011;6937;56.096;12.664;2022-09-13T17:25:41;7.15;;;2.25;;
13731;SDS011;6937;56.096;12.664;2022-09-13T17:28:10;6.72;;;1.80;;
13731;SDS011;6937;56.096;12.664;2022-09-13T17:30:37;6.22;;;2.10;;
13731;SDS011;6937;56.096;12.664;2022-09-13T17:33:02;8.23;;;2.05;;
13731;SDS011;6937;56.096;12.664;2022-09-13T17:35:30;8.73;;;1.92;;
13731;SDS011;6937;56.096;12.664;2022-09-13T17:37:56;9.60;;;2.38;;
13731;SDS011;6937;56.096;12.664;2022-09-13T17:40:21;7.88;;;2.03;;
13731;SDS011;6937;56.096;12.664;2022-09-13T17:42:46;6.63;;;2.10;;
13731;SDS011;6937;56.096;12.664;2022-09-13T17:45:13;10.13;;;2.28;;
13731;SDS011;6937;56.096;12.664;2022-09-13T17:47:38;5.70;;;1.88;;
13731;SDS011;6937;56.096;12.664;2022-09-13T17:50:04;8.68;;;2.35;;
13731;SDS011;6937;56.096;12.664;2022-09-13T17:52:29;6.28;;;1.75;;